KLBF/LBF METAR and TAF weather

Enter ICAO airport designator
Station Type Date Time Source
KLBF METAR 2018/12/17 01:53 UTC NOAA

KLBF 170153Z AUTO 00000KT 10SM CLR M04/M06 A3027 RMK AO2 SLP286 T10391056


Station Type Date Time Source
KLBF Decoded METAR 2018/12/17 01:53 UTC NOAA

NORTH PLATTE REGIONAL AIRPORT , NE, United States (KLBF) 41-07N 100-40W 847M
Dec 16, 2018 - 08:53 PM EST / 2018.12.17 0153 UTC
Wind: Calm:0
Visibility: 10 mile(s):0
Sky conditions: clear
Temperature: 25.0 F (-3.9 C)
Dew Point: 21.9 F (-5.6 C)
Relative Humidity: 87%
Pressure (altimeter): 30.27 in. Hg (1025 hPa)
ob: KLBF 170153Z AUTO 00000KT 10SM CLR M04/M06 A3027 RMK AO2 SLP286 T10391056
cycle: 2

Station Type Date Time Source
KLBF TAF 2018/12/16 18:22 UTC NOAA

TAF KLBF 161720Z 1618/1718 VRB05KT P6SM SKC


Example: see airport list